sensor_id;sensor_type;location;lat;lon;timestamp;P1;durP1;ratioP1;P2;durP2;ratioP2
13347;SDS011;6743;49.934;9.138;2023-06-22T00:01:11;2.30;;;2.10;;
13347;SDS011;6743;49.934;9.138;2023-06-22T00:03:37;3.35;;;2.65;;
13347;SDS011;6743;49.934;9.138;2023-06-22T00:06:03;3.47;;;2.65;;
13347;SDS011;6743;49.934;9.138;2023-06-22T00:08:29;2.72;;;2.53;;
13347;SDS011;6743;49.934;9.138;2023-06-22T00:10:55;2.47;;;2.30;;
13347;SDS011;6743;49.934;9.138;2023-06-22T00:13:21;3.62;;;2.42;;
13347;SDS011;6743;49.934;9.138;2023-06-22T00:15:47;2.25;;;2.05;;
13347;SDS011;6743;49.934;9.138;2023-06-22T00:18:13;2.67;;;2.47;;
13347;SDS011;6743;49.934;9.138;2023-06-22T00:20:41;2.47;;;2.28;;
13347;SDS011;6743;49.934;9.138;2023-06-22T00:23:07;3.42;;;2.35;;
13347;SDS011;6743;49.934;9.138;2023-06-22T00:25:33;2.58;;;2.37;;
13347;SDS011;6743;49.934;9.138;2023-06-22T00:27:59;2.15;;;1.95;;
13347;SDS011;6743;49.934;9.138;2023-06-22T00:30:26;2.53;;;2.12;;
13347;SDS011;6743;49.934;9.138;2023-06-22T00:32:52;2.30;;;2.08;;
13347;SDS011;6743;49.934;9.138;2023-06-22T00:35:18;3.22;;;2.28;;
13347;SDS011;6743;49.934;9.138;2023-06-22T00:37:44;2.40;;;2.20;;
13347;SDS011;6743;49.934;9.138;2023-06-22T00:40:10;2.75;;;2.53;;
13347;SDS011;6743;49.934;9.138;2023-06-22T00:42:37;2.90;;;2.70;;
13347;SDS011;6743;49.934;9.138;2023-06-22T00:45:04;3.50;;;2.95;;
13347;SDS011;6743;49.934;9.138;2023-06-22T00:47:31;2.53;;;2.30;;
13347;SDS011;6743;49.934;9.138;2023-06-22T00:49:59;2.70;;;2.50;;
13347;SDS011;6743;49.934;9.138;2023-06-22T00:52:25;2.92;;;2.58;;
13347;SDS011;6743;49.934;9.138;2023-06-22T00:54:54;2.80;;;2.60;;
13347;SDS011;6743;49.934;9.138;2023-06-22T00:57:22;2.67;;;2.40;;
13347;SDS011;6743;49.934;9.138;2023-06-22T00:59:53;2.65;;;2.45;;
13347;SDS011;6743;49.934;9.138;2023-06-22T01:02:19;2.67;;;2.42;;
13347;SDS011;6743;49.934;9.138;2023-06-22T01:04:46;3.05;;;2.83;;
13347;SDS011;6743;49.934;9.138;2023-06-22T01:07:14;2.55;;;2.35;;
13347;SDS011;6743;49.934;9.138;2023-06-22T01:09:49;2.60;;;2.40;;
13347;SDS011;6743;49.934;9.138;2023-06-22T01:12:22;2.60;;;2.40;;
13347;SDS011;6743;49.934;9.138;2023-06-22T01:14:52;2.67;;;2.47;;
13347;SDS011;6743;49.934;9.138;2023-06-22T01:17:24;3.15;;;2.85;;
13347;SDS011;6743;49.934;9.138;2023-06-22T01:19:53;4.07;;;2.70;;
13347;SDS011;6743;49.934;9.138;2023-06-22T01:22:21;3.10;;;2.80;;
13347;SDS011;6743;49.934;9.138;2023-06-22T01:24:51;3.45;;;3.12;;
13347;SDS011;6743;49.934;9.138;2023-06-22T01:27:32;2.92;;;2.58;;
13347;SDS011;6743;49.934;9.138;2023-06-22T01:30:07;4.15;;;3.20;;
13347;SDS011;6743;49.934;9.138;2023-06-22T01:32:35;3.40;;;3.08;;
13347;SDS011;6743;49.934;9.138;2023-06-22T01:35:04;2.90;;;2.70;;
13347;SDS011;6743;49.934;9.138;2023-06-22T01:37:32;3.20;;;2.90;;
13347;SDS011;6743;49.934;9.138;2023-06-22T01:39:59;5.15;;;2.72;;
13347;SDS011;6743;49.934;9.138;2023-06-22T01:42:26;3.58;;;2.92;;
13347;SDS011;6743;49.934;9.138;2023-06-22T01:44:53;3.30;;;3.00;;
13347;SDS011;6743;49.934;9.138;2023-06-22T01:47:19;3.47;;;3.15;;
13347;SDS011;6743;49.934;9.138;2023-06-22T01:49:46;3.35;;;3.05;;
13347;SDS011;6743;49.934;9.138;2023-06-22T01:52:12;2.90;;;2.60;;
13347;SDS011;6743;49.934;9.138;2023-06-22T01:54:39;3.15;;;2.47;;
13347;SDS011;6743;49.934;9.138;2023-06-22T01:57:05;3.12;;;2.83;;
13347;SDS011;6743;49.934;9.138;2023-06-22T01:59:32;3.67;;;3.20;;
13347;SDS011;6743;49.934;9.138;2023-06-22T02:02:04;3.45;;;3.15;;
13347;SDS011;6743;49.934;9.138;2023-06-22T02:04:34;3.00;;;2.80;;
13347;SDS011;6743;49.934;9.138;2023-06-22T02:07:04;3.45;;;3.15;;
13347;SDS011;6743;49.934;9.138;2023-06-22T02:09:34;3.25;;;2.95;;
13347;SDS011;6743;49.934;9.138;2023-06-22T02:12:04;2.80;;;2.60;;
13347;SDS011;6743;49.934;9.138;2023-06-22T02:14:32;3.40;;;3.05;;
13347;SDS011;6743;49.934;9.138;2023-06-22T02:16:58;3.60;;;3.30;;
13347;SDS011;6743;49.934;9.138;2023-06-22T02:19:25;3.70;;;3.12;;
13347;SDS011;6743;49.934;9.138;2023-06-22T02:21:53;3.28;;;2.97;;
13347;SDS011;6743;49.934;9.138;2023-06-22T02:24:19;2.62;;;2.42;;
13347;SDS011;6743;49.934;9.138;2023-06-22T02:26:48;3.08;;;2.80;;
13347;SDS011;6743;49.934;9.138;2023-06-22T02:29:15;2.87;;;2.65;;
13347;SDS011;6743;49.934;9.138;2023-06-22T02:31:41;2.58;;;2.37;;
13347;SDS011;6743;49.934;9.138;2023-06-22T02:34:07;2.70;;;2.50;;
13347;SDS011;6743;49.934;9.138;2023-06-22T02:36:33;3.40;;;2.85;;
13347;SDS011;6743;49.934;9.138;2023-06-22T02:38:59;3.42;;;3.12;;
13347;SDS011;6743;49.934;9.138;2023-06-22T02:41:26;3.28;;;2.97;;
13347;SDS011;6743;49.934;9.138;2023-06-22T02:43:53;3.30;;;3.00;;
13347;SDS011;6743;49.934;9.138;2023-06-22T02:46:19;3.12;;;2.83;;
13347;SDS011;6743;49.934;9.138;2023-06-22T02:48:45;4.53;;;3.60;;
13347;SDS011;6743;49.934;9.138;2023-06-22T02:51:11;3.17;;;2.75;;
13347;SDS011;6743;49.934;9.138;2023-06-22T02:53:37;2.97;;;2.78;;
13347;SDS011;6743;49.934;9.138;2023-06-22T02:56:03;3.15;;;2.95;;
13347;SDS011;6743;49.934;9.138;2023-06-22T02:58:30;3.30;;;3.00;;
13347;SDS011;6743;49.934;9.138;2023-06-22T03:00:58;3.17;;;2.78;;
13347;SDS011;6743;49.934;9.138;2023-06-22T03:03:29;3.37;;;2.85;;
13347;SDS011;6743;49.934;9.138;2023-06-22T03:05:55;4.18;;;3.55;;
13347;SDS011;6743;49.934;9.138;2023-06-22T03:08:21;2.67;;;2.45;;
13347;SDS011;6743;49.934;9.138;2023-06-22T03:10:47;3.15;;;2.85;;
13347;SDS011;6743;49.934;9.138;2023-06-22T03:13:16;2.40;;;2.20;;
13347;SDS011;6743;49.934;9.138;2023-06-22T03:15:42;3.53;;;2.85;;
13347;SDS011;6743;49.934;9.138;2023-06-22T03:18:08;2.92;;;2.72;;
13347;SDS011;6743;49.934;9.138;2023-06-22T03:20:34;2.83;;;2.62;;
13347;SDS011;6743;49.934;9.138;2023-06-22T03:23:00;2.92;;;2.65;;
13347;SDS011;6743;49.934;9.138;2023-06-22T03:25:26;2.72;;;2.53;;
13347;SDS011;6743;49.934;9.138;2023-06-22T03:27:52;2.70;;;2.50;;
13347;SDS011;6743;49.934;9.138;2023-06-22T03:30:19;2.85;;;2.50;;
13347;SDS011;6743;49.934;9.138;2023-06-22T03:32:45;3.00;;;2.62;;
13347;SDS011;6743;49.934;9.138;2023-06-22T03:35:12;3.37;;;2.92;;
13347;SDS011;6743;49.934;9.138;2023-06-22T03:37:39;3.28;;;2.78;;
13347;SDS011;6743;49.934;9.138;2023-06-22T03:40:05;3.90;;;2.67;;
13347;SDS011;6743;49.934;9.138;2023-06-22T03:42:33;2.75;;;2.55;;
13347;SDS011;6743;49.934;9.138;2023-06-22T03:45:02;3.00;;;2.70;;
13347;SDS011;6743;49.934;9.138;2023-06-22T03:47:29;2.33;;;2.12;;
13347;SDS011;6743;49.934;9.138;2023-06-22T03:49:55;2.47;;;2.28;;
13347;SDS011;6743;49.934;9.138;2023-06-22T03:52:21;3.00;;;2.80;;
13347;SDS011;6743;49.934;9.138;2023-06-22T03:54:47;2.85;;;2.65;;
13347;SDS011;6743;49.934;9.138;2023-06-22T03:57:15;2.80;;;2.60;;
13347;SDS011;6743;49.934;9.138;2023-06-22T03:59:43;2.83;;;2.60;;
13347;SDS011;6743;49.934;9.138;2023-06-22T04:02:09;3.35;;;2.67;;
13347;SDS011;6743;49.934;9.138;2023-06-22T04:04:36;3.50;;;3.20;;
13347;SDS011;6743;49.934;9.138;2023-06-22T04:07:04;3.30;;;3.00;;
13347;SDS011;6743;49.934;9.138;2023-06-22T04:09:30;2.37;;;2.17;;
13347;SDS011;6743;49.934;9.138;2023-06-22T04:11:56;2.87;;;2.67;;
13347;SDS011;6743;49.934;9.138;2023-06-22T04:14:22;3.67;;;2.83;;
13347;SDS011;6743;49.934;9.138;2023-06-22T04:16:48;2.97;;;2.67;;
13347;SDS011;6743;49.934;9.138;2023-06-22T04:19:14;3.28;;;2.80;;
13347;SDS011;6743;49.934;9.138;2023-06-22T04:21:44;3.30;;;3.00;;
13347;SDS011;6743;49.934;9.138;2023-06-22T04:24:10;3.60;;;3.30;;
13347;SDS011;6743;49.934;9.138;2023-06-22T04:26:36;2.78;;;2.58;;
13347;SDS011;6743;49.934;9.138;2023-06-22T04:29:02;3.12;;;2.60;;
13347;SDS011;6743;49.934;9.138;2023-06-22T04:31:30;3.10;;;2.80;;
13347;SDS011;6743;49.934;9.138;2023-06-22T04:33:57;3.25;;;2.95;;
13347;SDS011;6743;49.934;9.138;2023-06-22T04:36:31;3.35;;;3.05;;
13347;SDS011;6743;49.934;9.138;2023-06-22T04:39:04;3.62;;;3.03;;
13347;SDS011;6743;49.934;9.138;2023-06-22T04:41:31;3.08;;;2.67;;
13347;SDS011;6743;49.934;9.138;2023-06-22T04:44:07;3.97;;;3.05;;
13347;SDS011;6743;49.934;9.138;2023-06-22T04:46:34;3.28;;;2.97;;
13347;SDS011;6743;49.934;9.138;2023-06-22T04:49:03;2.80;;;2.60;;
13347;SDS011;6743;49.934;9.138;2023-06-22T04:51:31;3.67;;;3.12;;
13347;SDS011;6743;49.934;9.138;2023-06-22T04:54:00;3.55;;;3.22;;
13347;SDS011;6743;49.934;9.138;2023-06-22T04:56:27;3.03;;;2.72;;
13347;SDS011;6743;49.934;9.138;2023-06-22T04:58:53;2.92;;;2.72;;
13347;SDS011;6743;49.934;9.138;2023-06-22T05:01:22;3.47;;;3.17;;
13347;SDS011;6743;49.934;9.138;2023-06-22T05:03:48;3.20;;;2.90;;
13347;SDS011;6743;49.934;9.138;2023-06-22T05:06:13;3.22;;;2.95;;
13347;SDS011;6743;49.934;9.138;2023-06-22T05:08:40;3.55;;;3.25;;
13347;SDS011;6743;49.934;9.138;2023-06-22T05:11:06;3.65;;;3.35;;
13347;SDS011;6743;49.934;9.138;2023-06-22T05:13:32;3.47;;;3.03;;
13347;SDS011;6743;49.934;9.138;2023-06-22T05:15:58;3.37;;;3.00;;
13347;SDS011;6743;49.934;9.138;2023-06-22T05:18:27;3.03;;;2.83;;
13347;SDS011;6743;49.934;9.138;2023-06-22T05:20:54;4.00;;;3.60;;
13347;SDS011;6743;49.934;9.138;2023-06-22T05:23:20;4.10;;;3.67;;
13347;SDS011;6743;49.934;9.138;2023-06-22T05:25:46;3.50;;;3.20;;
13347;SDS011;6743;49.934;9.138;2023-06-22T05:28:12;3.83;;;3.50;;
13347;SDS011;6743;49.934;9.138;2023-06-22T05:30:39;4.12;;;3.45;;
13347;SDS011;6743;49.934;9.138;2023-06-22T05:33:05;3.50;;;3.20;;
13347;SDS011;6743;49.934;9.138;2023-06-22T05:35:31;3.50;;;3.20;;
13347;SDS011;6743;49.934;9.138;2023-06-22T05:37:57;4.12;;;3.78;;
13347;SDS011;6743;49.934;9.138;2023-06-22T05:40:23;3.37;;;3.08;;
13347;SDS011;6743;49.934;9.138;2023-06-22T05:42:49;4.22;;;3.62;;
13347;SDS011;6743;49.934;9.138;2023-06-22T05:45:15;3.60;;;3.30;;
13347;SDS011;6743;49.934;9.138;2023-06-22T05:47:42;3.97;;;3.00;;
13347;SDS011;6743;49.934;9.138;2023-06-22T05:50:08;2.70;;;2.50;;
13347;SDS011;6743;49.934;9.138;2023-06-22T05:52:34;3.60;;;3.22;;
13347;SDS011;6743;49.934;9.138;2023-06-22T05:55:01;4.12;;;3.58;;
13347;SDS011;6743;49.934;9.138;2023-06-22T05:57:27;4.07;;;3.03;;
13347;SDS011;6743;49.934;9.138;2023-06-22T05:59:54;3.10;;;2.85;;
13347;SDS011;6743;49.934;9.138;2023-06-22T06:02:20;3.80;;;3.10;;
13347;SDS011;6743;49.934;9.138;2023-06-22T06:04:47;3.35;;;3.05;;
13347;SDS011;6743;49.934;9.138;2023-06-22T06:07:16;3.12;;;2.90;;
13347;SDS011;6743;49.934;9.138;2023-06-22T06:09:42;2.90;;;2.70;;
13347;SDS011;6743;49.934;9.138;2023-06-22T06:12:08;3.25;;;2.95;;
13347;SDS011;6743;49.934;9.138;2023-06-22T06:14:35;3.92;;;3.53;;
13347;SDS011;6743;49.934;9.138;2023-06-22T06:17:01;3.10;;;2.83;;
13347;SDS011;6743;49.934;9.138;2023-06-22T06:19:27;3.30;;;3.00;;
13347;SDS011;6743;49.934;9.138;2023-06-22T06:21:53;2.80;;;2.60;;
13347;SDS011;6743;49.934;9.138;2023-06-22T06:24:19;3.50;;;3.00;;
13347;SDS011;6743;49.934;9.138;2023-06-22T06:26:45;3.67;;;3.37;;
13347;SDS011;6743;49.934;9.138;2023-06-22T06:29:12;2.90;;;2.53;;
13347;SDS011;6743;49.934;9.138;2023-06-22T06:31:38;3.50;;;3.17;;
13347;SDS011;6743;49.934;9.138;2023-06-22T06:34:09;3.85;;;3.37;;
13347;SDS011;6743;49.934;9.138;2023-06-22T06:36:41;3.30;;;3.00;;
13347;SDS011;6743;49.934;9.138;2023-06-22T06:39:08;3.83;;;3.47;;
13347;SDS011;6743;49.934;9.138;2023-06-22T06:41:34;3.30;;;3.00;;
13347;SDS011;6743;49.934;9.138;2023-06-22T06:44:00;3.20;;;2.90;;
13347;SDS011;6743;49.934;9.138;2023-06-22T06:46:28;3.10;;;2.80;;
13347;SDS011;6743;49.934;9.138;2023-06-22T06:48:57;3.83;;;3.45;;
13347;SDS011;6743;49.934;9.138;2023-06-22T06:51:23;3.15;;;2.83;;
13347;SDS011;6743;49.934;9.138;2023-06-22T06:53:49;3.72;;;3.17;;
13347;SDS011;6743;49.934;9.138;2023-06-22T06:56:16;3.65;;;2.90;;
13347;SDS011;6743;49.934;9.138;2023-06-22T06:58:42;3.55;;;3.15;;
13347;SDS011;6743;49.934;9.138;2023-06-22T07:01:10;2.83;;;2.62;;
13347;SDS011;6743;49.934;9.138;2023-06-22T07:03:36;3.50;;;3.20;;
13347;SDS011;6743;49.934;9.138;2023-06-22T07:06:02;3.35;;;2.87;;
13347;SDS011;6743;49.934;9.138;2023-06-22T07:08:28;3.33;;;3.03;;
13347;SDS011;6743;49.934;9.138;2023-06-22T07:10:54;4.00;;;3.60;;
13347;SDS011;6743;49.934;9.138;2023-06-22T07:13:21;3.30;;;3.00;;
13347;SDS011;6743;49.934;9.138;2023-06-22T07:15:47;3.33;;;3.03;;
13347;SDS011;6743;49.934;9.138;2023-06-22T07:18:13;3.20;;;2.90;;
13347;SDS011;6743;49.934;9.138;2023-06-22T07:20:39;3.62;;;3.33;;
13347;SDS011;6743;49.934;9.138;2023-06-22T07:23:06;3.60;;;3.25;;
13347;SDS011;6743;49.934;9.138;2023-06-22T07:25:32;3.85;;;3.55;;
13347;SDS011;6743;49.934;9.138;2023-06-22T07:27:59;3.53;;;3.22;;
13347;SDS011;6743;49.934;9.138;2023-06-22T07:30:29;3.62;;;3.33;;
13347;SDS011;6743;49.934;9.138;2023-06-22T07:32:55;3.83;;;3.40;;
13347;SDS011;6743;49.934;9.138;2023-06-22T07:35:22;4.30;;;3.53;;
13347;SDS011;6743;49.934;9.138;2023-06-22T07:37:50;3.47;;;3.17;;
13347;SDS011;6743;49.934;9.138;2023-06-22T07:40:16;4.03;;;3.70;;
13347;SDS011;6743;49.934;9.138;2023-06-22T07:42:42;3.67;;;3.37;;
13347;SDS011;6743;49.934;9.138;2023-06-22T07:45:08;3.40;;;3.10;;
13347;SDS011;6743;49.934;9.138;2023-06-22T07:47:35;3.75;;;3.45;;
13347;SDS011;6743;49.934;9.138;2023-06-22T07:50:01;3.08;;;2.85;;
13347;SDS011;6743;49.934;9.138;2023-06-22T07:52:28;3.33;;;2.92;;
13347;SDS011;6743;49.934;9.138;2023-06-22T07:54:54;3.45;;;3.12;;
13347;SDS011;6743;49.934;9.138;2023-06-22T07:57:22;3.42;;;3.12;;
13347;SDS011;6743;49.934;9.138;2023-06-22T07:59:57;3.40;;;2.97;;
13347;SDS011;6743;49.934;9.138;2023-06-22T08:02:23;2.97;;;2.70;;
13347;SDS011;6743;49.934;9.138;2023-06-22T08:04:49;2.95;;;2.75;;
13347;SDS011;6743;49.934;9.138;2023-06-22T08:07:15;3.35;;;3.05;;
13347;SDS011;6743;49.934;9.138;2023-06-22T08:09:45;2.95;;;2.67;;
13347;SDS011;6743;49.934;9.138;2023-06-22T08:12:13;3.28;;;2.97;;
13347;SDS011;6743;49.934;9.138;2023-06-22T08:14:39;3.10;;;2.80;;
13347;SDS011;6743;49.934;9.138;2023-06-22T08:17:07;2.85;;;2.65;;
13347;SDS011;6743;49.934;9.138;2023-06-22T08:19:33;3.50;;;3.00;;
13347;SDS011;6743;49.934;9.138;2023-06-22T08:22:00;3.70;;;3.40;;
13347;SDS011;6743;49.934;9.138;2023-06-22T08:24:26;3.17;;;2.80;;
13347;SDS011;6743;49.934;9.138;2023-06-22T08:26:55;3.08;;;2.78;;
13347;SDS011;6743;49.934;9.138;2023-06-22T08:29:21;3.15;;;2.90;;
13347;SDS011;6743;49.934;9.138;2023-06-22T08:31:47;2.92;;;2.72;;
13347;SDS011;6743;49.934;9.138;2023-06-22T08:34:13;2.67;;;2.47;;
13347;SDS011;6743;49.934;9.138;2023-06-22T08:36:39;3.17;;;2.85;;
13347;SDS011;6743;49.934;9.138;2023-06-22T08:39:10;3.15;;;2.85;;
13347;SDS011;6743;49.934;9.138;2023-06-22T08:41:37;3.40;;;3.10;;
13347;SDS011;6743;49.934;9.138;2023-06-22T08:44:03;3.20;;;2.90;;
13347;SDS011;6743;49.934;9.138;2023-06-22T08:46:29;2.75;;;2.55;;
13347;SDS011;6743;49.934;9.138;2023-06-22T08:48:57;2.80;;;2.60;;
13347;SDS011;6743;49.934;9.138;2023-06-22T08:51:23;3.30;;;2.90;;
13347;SDS011;6743;49.934;9.138;2023-06-22T08:53:49;2.92;;;2.72;;
13347;SDS011;6743;49.934;9.138;2023-06-22T08:56:16;3.30;;;3.00;;
13347;SDS011;6743;49.934;9.138;2023-06-22T08:58:42;3.28;;;2.97;;
13347;SDS011;6743;49.934;9.138;2023-06-22T09:01:08;3.15;;;2.95;;
13347;SDS011;6743;49.934;9.138;2023-06-22T09:03:33;3.25;;;2.90;;
13347;SDS011;6743;49.934;9.138;2023-06-22T09:06:01;4.60;;;3.28;;
13347;SDS011;6743;49.934;9.138;2023-06-22T09:08:27;3.20;;;2.90;;
13347;SDS011;6743;49.934;9.138;2023-06-22T09:10:53;3.12;;;2.60;;
13347;SDS011;6743;49.934;9.138;2023-06-22T09:13:22;3.70;;;2.90;;
13347;SDS011;6743;49.934;9.138;2023-06-22T09:15:48;2.95;;;2.72;;
13347;SDS011;6743;49.934;9.138;2023-06-22T09:18:15;2.90;;;2.70;;
13347;SDS011;6743;49.934;9.138;2023-06-22T09:20:41;3.00;;;2.70;;
13347;SDS011;6743;49.934;9.138;2023-06-22T09:23:07;3.28;;;2.97;;
13347;SDS011;6743;49.934;9.138;2023-06-22T09:25:33;3.33;;;3.03;;
13347;SDS011;6743;49.934;9.138;2023-06-22T09:27:59;3.20;;;2.90;;
13347;SDS011;6743;49.934;9.138;2023-06-22T09:30:26;3.50;;;3.20;;
13347;SDS011;6743;49.934;9.138;2023-06-22T09:32:52;4.03;;;2.97;;
13347;SDS011;6743;49.934;9.138;2023-06-22T09:35:18;2.90;;;2.70;;
13347;SDS011;6743;49.934;9.138;2023-06-22T09:37:45;2.75;;;2.55;;
13347;SDS011;6743;49.934;9.138;2023-06-22T09:40:11;3.33;;;3.03;;
13347;SDS011;6743;49.934;9.138;2023-06-22T09:42:38;3.10;;;2.90;;
13347;SDS011;6743;49.934;9.138;2023-06-22T09:45:04;2.90;;;2.70;;
13347;SDS011;6743;49.934;9.138;2023-06-22T09:47:32;3.15;;;2.85;;
13347;SDS011;6743;49.934;9.138;2023-06-22T09:49:58;3.22;;;2.92;;
13347;SDS011;6743;49.934;9.138;2023-06-22T09:52:25;3.22;;;3.03;;
13347;SDS011;6743;49.934;9.138;2023-06-22T09:54:51;3.22;;;2.92;;
13347;SDS011;6743;49.934;9.138;2023-06-22T09:57:17;4.32;;;3.00;;
13347;SDS011;6743;49.934;9.138;2023-06-22T09:59:43;2.97;;;2.78;;
13347;SDS011;6743;49.934;9.138;2023-06-22T10:02:10;3.20;;;3.00;;
13347;SDS011;6743;49.934;9.138;2023-06-22T10:04:37;3.30;;;3.00;;
13347;SDS011;6743;49.934;9.138;2023-06-22T10:07:04;3.08;;;2.78;;
13347;SDS011;6743;49.934;9.138;2023-06-22T10:09:30;3.25;;;2.95;;
13347;SDS011;6743;49.934;9.138;2023-06-22T10:11:56;2.87;;;2.67;;
13347;SDS011;6743;49.934;9.138;2023-06-22T10:14:22;3.30;;;3.00;;
13347;SDS011;6743;49.934;9.138;2023-06-22T10:16:50;2.87;;;2.67;;
13347;SDS011;6743;49.934;9.138;2023-06-22T10:19:17;3.22;;;3.03;;
13347;SDS011;6743;49.934;9.138;2023-06-22T10:21:44;3.20;;;2.92;;
13347;SDS011;6743;49.934;9.138;2023-06-22T10:24:10;3.03;;;2.80;;
13347;SDS011;6743;49.934;9.138;2023-06-22T10:26:36;3.03;;;2.75;;
13347;SDS011;6743;49.934;9.138;2023-06-22T10:29:02;3.35;;;3.05;;
13347;SDS011;6743;49.934;9.138;2023-06-22T10:31:29;2.87;;;2.67;;
13347;SDS011;6743;49.934;9.138;2023-06-22T10:33:55;2.92;;;2.72;;
13347;SDS011;6743;49.934;9.138;2023-06-22T10:36:21;2.70;;;2.50;;
13347;SDS011;6743;49.934;9.138;2023-06-22T10:38:48;3.25;;;2.95;;
13347;SDS011;6743;49.934;9.138;2023-06-22T10:41:14;2.83;;;2.62;;
13347;SDS011;6743;49.934;9.138;2023-06-22T10:43:41;2.87;;;2.67;;
13347;SDS011;6743;49.934;9.138;2023-06-22T10:46:07;3.40;;;3.10;;
13347;SDS011;6743;49.934;9.138;2023-06-22T10:48:33;3.15;;;2.85;;
13347;SDS011;6743;49.934;9.138;2023-06-22T10:50:59;3.10;;;2.80;;
13347;SDS011;6743;49.934;9.138;2023-06-22T10:53:25;2.92;;;2.72;;
13347;SDS011;6743;49.934;9.138;2023-06-22T10:55:52;3.00;;;2.80;;
13347;SDS011;6743;49.934;9.138;2023-06-22T10:58:19;2.60;;;2.40;;
13347;SDS011;6743;49.934;9.138;2023-06-22T11:00:45;2.78;;;2.58;;
13347;SDS011;6743;49.934;9.138;2023-06-22T11:03:11;2.55;;;2.35;;
13347;SDS011;6743;49.934;9.138;2023-06-22T11:05:39;2.90;;;2.70;;
13347;SDS011;6743;49.934;9.138;2023-06-22T11:08:06;3.12;;;2.85;;
13347;SDS011;6743;49.934;9.138;2023-06-22T11:10:32;3.28;;;3.03;;
13347;SDS011;6743;49.934;9.138;2023-06-22T11:12:59;3.20;;;2.90;;
13347;SDS011;6743;49.934;9.138;2023-06-22T11:15:25;3.10;;;2.80;;
13347;SDS011;6743;49.934;9.138;2023-06-22T11:17:51;3.10;;;2.90;;
13347;SDS011;6743;49.934;9.138;2023-06-22T11:20:17;3.08;;;2.78;;
13347;SDS011;6743;49.934;9.138;2023-06-22T11:22:43;2.90;;;2.60;;
13347;SDS011;6743;49.934;9.138;2023-06-22T11:25:09;3.03;;;2.80;;
13347;SDS011;6743;49.934;9.138;2023-06-22T11:27:40;2.85;;;2.65;;
13347;SDS011;6743;49.934;9.138;2023-06-22T11:30:09;3.20;;;2.90;;
13347;SDS011;6743;49.934;9.138;2023-06-22T11:32:36;2.83;;;2.62;;
13347;SDS011;6743;49.934;9.138;2023-06-22T11:35:02;3.67;;;2.95;;
13347;SDS011;6743;49.934;9.138;2023-06-22T11:37:28;3.22;;;2.97;;
13347;SDS011;6743;49.934;9.138;2023-06-22T11:39:57;3.03;;;2.80;;
13347;SDS011;6743;49.934;9.138;2023-06-22T11:42:23;2.72;;;2.53;;
13347;SDS011;6743;49.934;9.138;2023-06-22T11:44:50;3.03;;;2.72;;
13347;SDS011;6743;49.934;9.138;2023-06-22T11:47:17;2.85;;;2.62;;
13347;SDS011;6743;49.934;9.138;2023-06-22T11:49:43;2.85;;;2.65;;
13347;SDS011;6743;49.934;9.138;2023-06-22T11:52:09;2.78;;;2.58;;
13347;SDS011;6743;49.934;9.138;2023-06-22T11:54:35;3.37;;;2.65;;
13347;SDS011;6743;49.934;9.138;2023-06-22T11:57:01;3.00;;;2.80;;
13347;SDS011;6743;49.934;9.138;2023-06-22T11:59:27;3.35;;;3.05;;
13347;SDS011;6743;49.934;9.138;2023-06-22T12:01:53;3.45;;;3.15;;
13347;SDS011;6743;49.934;9.138;2023-06-22T12:04:20;3.65;;;3.25;;
13347;SDS011;6743;49.934;9.138;2023-06-22T12:06:59;3.12;;;2.92;;
13347;SDS011;6743;49.934;9.138;2023-06-22T12:09:25;3.10;;;2.90;;
13347;SDS011;6743;49.934;9.138;2023-06-22T12:11:58;3.45;;;3.15;;
13347;SDS011;6743;49.934;9.138;2023-06-22T12:14:27;5.43;;;3.00;;
13347;SDS011;6743;49.934;9.138;2023-06-22T12:16:53;3.40;;;3.05;;
13347;SDS011;6743;49.934;9.138;2023-06-22T12:19:20;3.05;;;2.75;;
13347;SDS011;6743;49.934;9.138;2023-06-22T12:21:46;3.67;;;2.92;;
13347;SDS011;6743;49.934;9.138;2023-06-22T12:24:12;2.97;;;2.67;;
13347;SDS011;6743;49.934;9.138;2023-06-22T12:26:38;2.87;;;2.67;;
13347;SDS011;6743;49.934;9.138;2023-06-22T12:29:04;2.90;;;2.70;;
13347;SDS011;6743;49.934;9.138;2023-06-22T12:31:30;3.33;;;3.03;;
13347;SDS011;6743;49.934;9.138;2023-06-22T12:33:56;3.20;;;3.00;;
13347;SDS011;6743;49.934;9.138;2023-06-22T12:36:23;2.60;;;2.40;;
13347;SDS011;6743;49.934;9.138;2023-06-22T12:38:49;3.50;;;3.20;;
13347;SDS011;6743;49.934;9.138;2023-06-22T12:41:17;3.20;;;2.90;;
13347;SDS011;6743;49.934;9.138;2023-06-22T12:43:46;5.10;;;2.90;;
13347;SDS011;6743;49.934;9.138;2023-06-22T12:46:12;3.00;;;2.80;;
13347;SDS011;6743;49.934;9.138;2023-06-22T12:48:38;2.60;;;2.40;;
13347;SDS011;6743;49.934;9.138;2023-06-22T12:51:07;2.65;;;2.45;;
13347;SDS011;6743;49.934;9.138;2023-06-22T12:53:34;2.58;;;2.37;;
13347;SDS011;6743;49.934;9.138;2023-06-22T12:56:00;3.80;;;2.47;;
13347;SDS011;6743;49.934;9.138;2023-06-22T12:58:26;2.50;;;2.30;;
13347;SDS011;6743;49.934;9.138;2023-06-22T13:00:55;2.58;;;2.37;;
13347;SDS011;6743;49.934;9.138;2023-06-22T13:03:21;2.40;;;2.03;;
13347;SDS011;6743;49.934;9.138;2023-06-22T13:05:49;2.12;;;2.03;;
13347;SDS011;6743;49.934;9.138;2023-06-22T13:08:15;2.22;;;2.05;;
13347;SDS011;6743;49.934;9.138;2023-06-22T13:10:41;2.47;;;2.28;;
13347;SDS011;6743;49.934;9.138;2023-06-22T13:13:07;2.60;;;2.40;;
13347;SDS011;6743;49.934;9.138;2023-06-22T13:15:33;2.33;;;2.12;;
13347;SDS011;6743;49.934;9.138;2023-06-22T13:17:59;2.72;;;2.10;;
13347;SDS011;6743;49.934;9.138;2023-06-22T13:20:25;2.75;;;2.50;;
13347;SDS011;6743;49.934;9.138;2023-06-22T13:22:53;1.90;;;1.75;;
13347;SDS011;6743;49.934;9.138;2023-06-22T13:25:20;2.45;;;2.25;;
13347;SDS011;6743;49.934;9.138;2023-06-22T13:27:49;2.30;;;2.10;;
13347;SDS011;6743;49.934;9.138;2023-06-22T13:30:15;2.62;;;2.42;;
13347;SDS011;6743;49.934;9.138;2023-06-22T13:32:41;2.45;;;2.25;;
13347;SDS011;6743;49.934;9.138;2023-06-22T13:35:08;2.62;;;2.42;;
13347;SDS011;6743;49.934;9.138;2023-06-22T13:37:37;1.98;;;1.87;;
13347;SDS011;6743;49.934;9.138;2023-06-22T13:42:31;2.22;;;2.03;;
13347;SDS011;6743;49.934;9.138;2023-06-22T13:44:58;2.40;;;1.90;;
13347;SDS011;6743;49.934;9.138;2023-06-22T13:47:24;2.15;;;2.05;;
13347;SDS011;6743;49.934;9.138;2023-06-22T13:49:53;2.37;;;2.17;;
13347;SDS011;6743;49.934;9.138;2023-06-22T13:52:19;2.35;;;2.15;;
13347;SDS011;6743;49.934;9.138;2023-06-22T13:54:45;2.22;;;2.03;;
13347;SDS011;6743;49.934;9.138;2023-06-22T13:57:11;1.95;;;1.85;;
13347;SDS011;6743;49.934;9.138;2023-06-22T13:59:37;2.10;;;2.00;;
13347;SDS011;6743;49.934;9.138;2023-06-22T14:02:04;1.98;;;1.87;;
13347;SDS011;6743;49.934;9.138;2023-06-22T14:04:31;2.33;;;1.95;;
13347;SDS011;6743;49.934;9.138;2023-06-22T14:06:57;2.05;;;1.95;;
13347;SDS011;6743;49.934;9.138;2023-06-22T14:09:23;2.30;;;2.20;;
13347;SDS011;6743;49.934;9.138;2023-06-22T14:11:49;2.47;;;2.22;;
13347;SDS011;6743;49.934;9.138;2023-06-22T14:14:15;1.75;;;1.65;;
13347;SDS011;6743;49.934;9.138;2023-06-22T14:16:41;3.45;;;2.20;;
13347;SDS011;6743;49.934;9.138;2023-06-22T14:19:08;2.17;;;1.98;;
13347;SDS011;6743;49.934;9.138;2023-06-22T14:21:35;2.17;;;2.00;;
13347;SDS011;6743;49.934;9.138;2023-06-22T14:24:01;2.20;;;1.87;;
13347;SDS011;6743;49.934;9.138;2023-06-22T14:26:27;2.05;;;1.95;;
13347;SDS011;6743;49.934;9.138;2023-06-22T14:28:53;2.10;;;2.00;;
13347;SDS011;6743;49.934;9.138;2023-06-22T14:31:19;2.72;;;2.10;;
13347;SDS011;6743;49.934;9.138;2023-06-22T14:33:46;2.22;;;2.03;;
13347;SDS011;6743;49.934;9.138;2023-06-22T14:36:19;2.50;;;2.22;;
13347;SDS011;6743;49.934;9.138;2023-06-22T14:38:45;2.53;;;2.30;;
13347;SDS011;6743;49.934;9.138;2023-06-22T14:41:11;2.25;;;2.08;;
13347;SDS011;6743;49.934;9.138;2023-06-22T14:43:37;2.30;;;2.10;;
13347;SDS011;6743;49.934;9.138;2023-06-22T14:46:03;2.05;;;1.95;;
13347;SDS011;6743;49.934;9.138;2023-06-22T14:48:29;2.33;;;2.12;;
13347;SDS011;6743;49.934;9.138;2023-06-22T14:50:55;2.08;;;1.98;;
13347;SDS011;6743;49.934;9.138;2023-06-22T14:53:22;1.83;;;1.73;;
13347;SDS011;6743;49.934;9.138;2023-06-22T14:55:49;2.20;;;2.00;;
13347;SDS011;6743;49.934;9.138;2023-06-22T14:58:15;2.10;;;1.90;;
13347;SDS011;6743;49.934;9.138;2023-06-22T15:00:41;2.10;;;2.00;;